Time;durP1;ratioP1;P1;durP2;ratioP2;P2;SDS_P1;SDS_P2;PMS_P1;PMS_P2;Temp;Humidity;BMP_temperature;BMP_pressure;BME280_temperature;BME280_humidity;BME280_pressure;Samples;Min_cycle;Max_cycle;Signal;HPM_P1;HPM_P2
2022/09/14 00:00:04;;;;;;;6.17;5.57;;;18.30;1.00;;;;;;4993466;28;20823;-54
2022/09/14 00:02:30;;;;;;;6.50;5.43;;;18.30;1.00;;;;;;4958271;28;20692;-56
2022/09/14 00:04:56;;;;;;;6.50;4.97;;;18.20;1.00;;;;;;4993178;28;20468;-55
2022/09/14 00:07:21;;;;;;;5.87;5.00;;;18.20;1.00;;;;;;4996603;28;20181;-55
2022/09/14 00:09:47;;;;;;;6.07;5.17;;;18.10;1.00;;;;;;4993549;28;20536;-55
2022/09/14 00:12:16;;;;;;;6.03;5.53;;;;;;;;;;4993606;28;20207;-56
2022/09/14 00:14:42;;;;;;;6.73;5.50;;;18.10;1.00;;;;;;4992074;28;20419;-55
2022/09/14 00:17:08;;;;;;;6.10;5.60;;;18.10;1.00;;;;;;4993128;28;20472;-55
2022/09/14 00:19:33;;;;;;;7.23;5.63;;;18.10;1.00;;;;;;4993577;28;20213;-55
2022/09/14 00:21:59;;;;;;;6.70;6.10;;;18.10;1.00;;;;;;4993205;28;20193;-53
2022/09/14 00:24:26;;;;;;;6.37;5.77;;;18.10;1.00;;;;;;4992939;28;20186;-55
2022/09/14 00:26:52;;;;;;;8.30;6.30;;;18.20;1.00;;;;;;4993410;28;20570;-56
2022/09/14 00:29:18;;;;;;;6.33;5.67;;;18.10;1.00;;;;;;4993156;28;20442;-56
2022/09/14 00:31:44;;;;;;;6.47;5.87;;;18.10;1.00;;;;;;4992342;28;20198;-55
2022/09/14 00:34:13;;;;;;;6.30;5.77;;;18.10;1.00;;;;;;4992832;28;20615;-55
2022/09/14 00:36:46;;;;;;;6.17;5.10;;;18.10;1.00;;;;;;4992928;28;20266;-54
2022/09/14 00:39:12;;;;;;;5.90;5.30;;;18.10;1.00;;;;;;4993100;28;20412;-53
2022/09/14 00:41:42;;;;;;;7.30;5.93;;;18.20;1.00;;;;;;4992512;28;20476;-55
2022/09/14 00:44:11;;;;;;;8.37;6.30;;;18.30;1.00;;;;;;4992948;28;20446;-54
2022/09/14 00:46:45;;;;;;;8.17;6.40;;;18.30;1.00;;;;;;4993282;28;20955;-54
2022/09/14 00:49:22;;;;;;;8.63;5.90;;;18.40;1.00;;;;;;4993263;28;20433;-54
2022/09/14 00:51:59;;;;;;;6.47;5.33;;;18.50;1.00;;;;;;4993163;28;20799;-56
2022/09/14 00:54:25;;;;;;;6.37;5.57;;;18.60;1.00;;;;;;4993175;28;20517;-55
2022/09/14 00:56:52;;;;;;;6.07;5.57;;;18.60;1.00;;;;;;4992788;28;20529;-56
2022/09/14 00:59:24;;;;;;;5.97;5.40;;;18.70;1.00;;;;;;4993029;28;20554;-53
2022/09/14 01:01:50;;;;;;;7.10;5.67;;;18.60;1.00;;;;;;4993150;28;20935;-53
2022/09/14 01:04:16;;;;;;;5.90;5.40;;;18.50;1.00;;;;;;4997275;28;20423;-54
2022/09/14 01:07:00;;;;;;;6.83;6.20;;;18.50;1.00;;;;;;4995129;28;20695;-57
2022/09/14 01:09:53;;;;;;;8.43;5.80;;;18.60;1.00;;;;;;4992187;28;21260;-54
2022/09/14 01:12:25;;;;;;;7.27;6.63;;;18.60;1.00;;;;;;4992160;28;20445;-55
2022/09/14 01:15:00;;;;;;;6.73;5.93;;;18.70;1.00;;;;;;4991605;28;20433;-56
2022/09/14 01:17:37;;;;;;;6.07;5.40;;;18.60;1.00;;;;;;4992581;28;20472;-55
2022/09/14 01:20:26;;;;;;;6.73;6.10;;;18.60;1.00;;;;;;4991841;28;20437;-56
2022/09/14 01:23:12;;;;;;;7.77;5.90;;;18.50;1.00;;;;;;4991853;28;20507;-54
2022/09/14 01:25:59;;;;;;;6.70;6.07;;;18.60;1.00;;;;;;4989657;28;20415;-55
2022/09/14 01:28:52;;;;;;;7.63;5.87;;;18.60;1.00;;;;;;4991798;28;20977;-55
2022/09/14 01:31:27;;;;;;;6.97;6.30;;;18.60;1.00;;;;;;4990598;28;21016;-54
2022/09/14 01:33:58;;;;;;;6.17;5.57;;;18.60;1.00;;;;;;4991570;28;20446;-55
2022/09/14 01:36:26;;;;;;;6.90;6.30;;;18.60;1.00;;;;;;4991872;28;20943;-55
2022/09/14 01:38:54;;;;;;;6.30;5.80;;;18.50;1.00;;;;;;4992037;28;20438;-59
2022/09/14 01:41:24;;;;;;;5.90;5.30;;;18.50;1.00;;;;;;4991435;28;20998;-58
2022/09/14 01:44:03;;;;;;;10.00;6.40;;;18.50;1.00;;;;;;4990908;28;20428;-59
2022/09/14 01:46:41;;;;;;;9.30;6.10;;;18.50;1.00;;;;;;4990992;28;20927;-59
2022/09/14 01:49:26;;;;;;;6.57;5.97;;;18.50;1.00;;;;;;4991085;28;20866;-60
2022/09/14 01:52:06;;;;;;;5.80;5.30;;;18.60;1.00;;;;;;4990084;28;20447;-59
2022/09/14 01:54:41;;;;;;;6.97;5.93;;;18.60;1.00;;;;;;4991805;28;20422;-56
2022/09/14 01:57:31;;;;;;;6.73;5.77;;;18.70;1.00;;;;;;4991303;28;20482;-55
2022/09/14 02:00:03;;;;;;;6.67;6.07;;;18.60;1.00;;;;;;4991536;28;20448;-56
2022/09/14 02:02:39;;;;;;;7.20;6.57;;;18.60;1.00;;;;;;4973540;28;20453;-54
2022/09/14 02:05:12;;;;;;;6.50;5.73;;;18.60;1.00;;;;;;4991690;28;20447;-55
2022/09/14 02:07:38;;;;;;;8.67;6.53;;;18.60;1.00;;;;;;4987831;28;20421;-56
2022/09/14 02:10:08;;;;;;;7.10;6.40;;;18.50;1.00;;;;;;4974109;28;20445;-54
2022/09/14 02:12:34;;;;;;;11.10;6.40;;;18.50;1.00;;;;;;4990861;28;20443;-53
2022/09/14 02:14:59;;;;;;;6.73;6.13;;;18.40;1.00;;;;;;4991158;28;20954;-55
2022/09/14 02:17:26;;;;;;;6.43;5.80;;;18.50;1.00;;;;;;4990932;28;20423;-54
2022/09/14 02:20:03;;;;;;;7.57;6.70;;;18.50;1.00;;;;;;4991436;28;20545;-54
2022/09/14 02:22:30;;;;;;;6.57;5.90;;;18.40;1.00;;;;;;4994638;28;20466;-54
2022/09/14 02:24:56;;;;;;;6.47;5.80;;;18.40;1.00;;;;;;4990969;28;20980;-55
2022/09/14 02:27:23;;;;;;;7.13;6.20;;;18.30;1.00;;;;;;4990853;28;20424;-56
2022/09/14 02:29:50;;;;;;;6.40;5.80;;;18.30;1.00;;;;;;4990716;28;21011;-54
2022/09/14 02:32:39;;;;;;;7.17;6.47;;;18.40;1.00;;;;;;4990951;28;20467;-55
2022/09/14 02:35:09;;;;;;;7.20;6.50;;;18.30;1.00;;;;;;4989452;28;20434;-54
2022/09/14 02:37:43;;;;;;;6.93;6.37;;;18.40;1.00;;;;;;4990764;28;20407;-53
2022/09/14 02:40:27;;;;;;;9.30;6.50;;;18.40;1.00;;;;;;4990707;28;20419;-54
2022/09/14 02:43:29;;;;;;;8.30;6.93;;;18.40;1.00;;;;;;4990085;28;20471;-54
2022/09/14 02:46:16;;;;;;;7.03;6.43;;;18.40;1.00;;;;;;4953351;28;20460;-57
2022/09/14 02:49:23;;;;;;;8.80;6.80;;;18.40;1.00;;;;;;4990408;28;20423;-53
2022/09/14 02:52:03;;;;;;;9.40;7.00;;;18.30;1.00;;;;;;4990454;28;20473;-55
2022/09/14 02:54:37;;;;;;;7.30;6.20;;;18.30;1.00;;;;;;4990450;28;20417;-55
2022/09/14 02:57:04;;;;;;;7.30;6.33;;;18.50;1.00;;;;;;4996897;28;20600;-55
2022/09/14 02:59:30;;;;;;;7.17;6.47;;;18.50;1.00;;;;;;4996949;28;20464;-54
2022/09/14 03:01:57;;;;;;;7.37;6.27;;;18.50;1.00;;;;;;4997153;28;20449;-55
2022/09/14 03:04:24;;;;;;;7.40;6.80;;;18.50;1.00;;;;;;4979209;28;20423;-54
2022/09/14 03:06:49;;;;;;;7.70;6.90;;;18.50;1.00;;;;;;4997065;28;20416;-56
2022/09/14 03:09:15;;;;;;;7.03;6.50;;;18.50;1.00;;;;;;4996857;28;20416;-55
2022/09/14 03:11:41;;;;;;;9.43;6.83;;;18.40;1.00;;;;;;4996754;28;20689;-55
2022/09/14 03:14:08;;;;;;;7.10;6.40;;;18.40;1.00;;;;;;4997265;28;20261;-55
2022/09/14 03:16:33;;;;;;;6.77;6.17;;;18.40;1.00;;;;;;4996918;28;20178;-55
2022/09/14 03:19:00;;;;;;;7.33;6.63;;;18.50;1.00;;;;;;4997044;28;20431;-55
2022/09/14 03:21:26;;;;;;;8.50;6.53;;;18.50;1.00;;;;;;4996959;28;20186;-54
2022/09/14 03:23:54;;;;;;;6.73;6.13;;;18.50;1.00;;;;;;4996953;28;20443;-53
2022/09/14 03:26:21;;;;;;;7.80;7.10;;;18.50;1.00;;;;;;4996674;28;20186;-56
2022/09/14 03:28:51;;;;;;;8.00;6.70;;;18.50;1.00;;;;;;4999459;28;20455;-55
2022/09/14 03:31:18;;;;;;;7.30;6.60;;;18.60;1.00;;;;;;4996783;28;20469;-55
2022/09/14 03:33:43;;;;;;;8.33;6.50;;;18.60;1.00;;;;;;4996504;28;20441;-54
2022/09/14 03:36:17;;;;;;;7.60;6.80;;;18.60;1.00;;;;;;4996888;28;20499;-56
2022/09/14 03:38:48;;;;;;;8.23;7.43;;;18.70;1.00;;;;;;4996820;28;20265;-56
2022/09/14 03:41:14;;;;;;;6.80;5.97;;;18.70;1.00;;;;;;4996758;28;20419;-57
2022/09/14 03:43:41;;;;;;;8.60;5.47;;;18.60;1.00;;;;;;4996493;28;20452;-53
2022/09/14 03:46:13;;;;;;;6.93;6.07;;;18.50;1.00;;;;;;4996446;28;20453;-56
2022/09/14 03:48:39;;;;;;;7.00;6.40;;;18.50;1.00;;;;;;4996799;28;20814;-55
2022/09/14 03:51:06;;;;;;;7.70;6.53;;;18.50;1.00;;;;;;4995720;28;20415;-54
2022/09/14 03:53:32;;;;;;;7.03;6.30;;;18.50;1.00;;;;;;4996349;28;20430;-54
2022/09/14 03:55:58;;;;;;;7.60;6.90;;;18.60;1.00;;;;;;4996510;28;20428;-54
2022/09/14 03:58:24;;;;;;;7.23;5.77;;;18.50;1.00;;;;;;4996630;28;20442;-53
2022/09/14 04:00:50;;;;;;;6.57;5.97;;;18.40;1.00;;;;;;4996346;28;20205;-56
2022/09/14 04:03:16;;;;;;;7.37;5.80;;;18.40;1.00;;;;;;4996747;28;20974;-58
2022/09/14 04:05:44;;;;;;;6.93;6.33;;;18.50;1.00;;;;;;4996475;28;20261;-56
2022/09/14 04:08:09;;;;;;;7.30;6.60;;;18.30;1.00;;;;;;4991857;28;20491;-55
2022/09/14 04:10:37;;;;;;;8.27;6.50;;;18.30;1.00;;;;;;4993488;28;20423;-54
2022/09/14 04:13:02;;;;;;;6.50;5.90;;;18.40;1.00;;;;;;4993243;28;20534;-56
2022/09/14 04:15:28;;;;;;;6.13;5.57;;;18.40;1.00;;;;;;4975518;28;20435;-56
2022/09/14 04:17:54;;;;;;;7.30;6.00;;;18.40;1.00;;;;;;4975719;28;20276;-55
2022/09/14 04:20:19;;;;;;;8.33;6.23;;;18.50;1.00;;;;;;4993582;28;20663;-54
2022/09/14 04:22:45;;;;;;;7.03;6.40;;;18.40;1.00;;;;;;4993246;28;20656;-54
2022/09/14 04:25:11;;;;;;;7.67;6.50;;;18.40;1.00;;;;;;4993269;28;20652;-55
2022/09/14 04:27:37;;;;;;;7.50;6.80;;;18.40;1.00;;;;;;4993100;28;20555;-55
2022/09/14 04:30:05;;;;;;;8.37;6.50;;;18.30;1.00;;;;;;4992743;28;20274;-56
2022/09/14 04:32:31;;;;;;;6.80;6.20;;;18.30;1.00;;;;;;4993066;28;20450;-56
2022/09/14 04:34:57;;;;;;;6.70;6.10;;;18.30;1.00;;;;;;4992745;28;20416;-53
2022/09/14 04:37:22;;;;;;;8.50;7.00;;;18.50;1.00;;;;;;4975885;28;20187;-54
2022/09/14 04:39:48;;;;;;;9.50;7.37;;;18.50;1.00;;;;;;4993002;28;20254;-54
2022/09/14 04:42:13;;;;;;;6.60;6.10;;;18.60;1.00;;;;;;4993350;28;20220;-57
2022/09/14 04:44:40;;;;;;;7.10;6.40;;;18.60;1.00;;;;;;4992781;28;20221;-54
2022/09/14 04:47:06;;;;;;;8.73;7.73;;;18.60;1.00;;;;;;4992897;28;20187;-54
2022/09/14 04:49:31;;;;;;;7.57;6.67;;;18.60;1.00;;;;;;4992709;28;20520;-55
2022/09/14 04:51:57;;;;;;;7.47;6.77;;;18.50;1.00;;;;;;4991898;28;20301;-53
2022/09/14 04:54:23;;;;;;;6.77;6.17;;;18.50;1.00;;;;;;4992756;28;20216;-57
2022/09/14 04:56:48;;;;;;;7.63;6.93;;;18.50;1.00;;;;;;4992692;28;20182;-57
2022/09/14 04:59:14;;;;;;;10.03;7.70;;;18.50;1.00;;;;;;4998892;28;20256;-57
2022/09/14 05:01:42;;;;;;;7.60;6.90;;;18.50;1.00;;;;;;4992502;28;20190;-57
2022/09/14 05:04:09;;;;;;;7.80;7.00;;;18.50;1.00;;;;;;4992386;28;20465;-56
2022/09/14 05:06:37;;;;;;;8.23;7.50;;;18.50;1.00;;;;;;4992527;28;20446;-56
2022/09/14 05:09:06;;;;;;;8.20;7.37;;;18.60;1.00;;;;;;4974959;28;20517;-54
2022/09/14 05:11:33;;;;;;;10.53;6.50;;;18.60;1.00;;;;;;4974645;28;20447;-55
2022/09/14 05:14:01;;;;;;;8.10;7.30;;;18.70;1.00;;;;;;4991902;28;20449;-53
2022/09/14 05:16:37;;;;;;;7.97;7.27;;;18.60;1.00;;;;;;4991961;28;20493;-54
2022/09/14 05:19:05;;;;;;;7.00;6.30;;;18.70;1.00;;;;;;4991632;28;20527;-56
2022/09/14 05:21:33;;;;;;;12.20;7.33;;;18.70;1.00;;;;;;4990186;28;20925;-56
2022/09/14 05:24:02;;;;;;;8.23;6.80;;;18.60;1.00;;;;;;4992010;28;20507;-55
2022/09/14 05:26:30;;;;;;;11.83;6.97;;;18.60;1.00;;;;;;4974439;28;20472;-55
2022/09/14 05:28:57;;;;;;;7.37;6.67;;;18.60;1.00;;;;;;4991855;28;20560;-56
2022/09/14 05:31:24;;;;;;;8.23;7.33;;;18.70;1.00;;;;;;4991107;28;20588;-54
2022/09/14 05:33:51;;;;;;;8.00;7.23;;;18.70;1.00;;;;;;4988709;28;20444;-56
2022/09/14 05:36:17;;;;;;;8.53;7.73;;;18.70;1.00;;;;;;4991388;28;20429;-54
2022/09/14 05:38:43;;;;;;;8.63;7.40;;;18.70;1.00;;;;;;4991871;28;20436;-55
2022/09/14 05:41:11;;;;;;;9.47;7.30;;;18.70;1.00;;;;;;4991451;28;20189;-56
2022/09/14 05:43:37;;;;;;;9.50;7.90;;;18.70;1.00;;;;;;4989599;28;20827;-54
2022/09/14 05:46:11;;;;;;;8.80;7.87;;;18.70;1.00;;;;;;4991444;28;20446;-57
2022/09/14 05:48:38;;;;;;;7.40;6.70;;;18.80;1.00;;;;;;4989255;28;20437;-55
2022/09/14 05:51:10;;;;;;;7.47;6.77;;;18.80;1.00;;;;;;4991468;28;20968;-56
2022/09/14 05:53:36;;;;;;;8.50;7.80;;;18.90;1.00;;;;;;4990992;28;20423;-54
2022/09/14 05:56:10;;;;;;;8.43;7.63;;;18.90;1.00;;;;;;4991693;28;20424;-56
2022/09/14 05:58:36;;;;;;;8.33;7.63;;;19.00;1.00;;;;;;4991141;28;20525;-55
2022/09/14 06:01:07;;;;;;;8.37;7.50;;;19.00;1.00;;;;;;4991986;28;20474;-54
2022/09/14 06:03:33;;;;;;;10.53;7.87;;;19.10;1.00;;;;;;4990974;28;20455;-55
2022/09/14 06:05:59;;;;;;;10.30;8.43;;;19.20;1.00;;;;;;4991729;28;20437;-55
2022/09/14 06:08:25;;;;;;;10.50;7.30;;;19.20;1.00;;;;;;4990849;28;20441;-54
2022/09/14 06:10:50;;;;;;;7.97;7.27;;;19.20;1.00;;;;;;4990964;28;20699;-57
2022/09/14 06:13:16;;;;;;;10.23;7.20;;;19.20;1.00;;;;;;4991046;28;20679;-55
2022/09/14 06:15:41;;;;;;;9.37;7.97;;;19.20;1.00;;;;;;4990908;28;20657;-55
2022/09/14 06:18:07;;;;;;;9.10;8.13;;;19.30;1.00;;;;;;4991117;28;20187;-54
2022/09/14 06:20:33;;;;;;;8.70;7.33;;;19.40;1.00;;;;;;4990355;28;20221;-55
2022/09/14 06:22:58;;;;;;;9.30;8.10;;;19.50;1.00;;;;;;4990901;28;20225;-55
2022/09/14 06:25:24;;;;;;;13.40;8.47;;;19.60;1.00;;;;;;4990412;28;20597;-56
2022/09/14 06:27:53;;;;;;;8.80;7.60;;;19.60;1.00;;;;;;4991137;28;20213;-54
2022/09/14 06:30:20;;;;;;;10.70;7.47;;;19.60;1.00;;;;;;4989865;28;20181;-55
2022/09/14 06:32:46;;;;;;;11.63;8.20;;;19.60;1.00;;;;;;4990783;28;20502;-55
2022/09/14 06:35:11;;;;;;;8.37;7.57;;;19.60;1.00;;;;;;4990962;28;20485;-54
2022/09/14 06:37:37;;;;;;;10.43;8.47;;;19.60;1.00;;;;;;4990351;28;20201;-56
2022/09/14 06:40:03;;;;;;;9.30;8.40;;;19.70;1.00;;;;;;4990698;28;20613;-54
2022/09/14 06:42:29;;;;;;;10.23;8.23;;;19.60;1.00;;;;;;4990502;28;20616;-53
2022/09/14 06:44:55;;;;;;;8.40;7.30;;;19.70;1.00;;;;;;4990616;28;20866;-55
2022/09/14 06:47:20;;;;;;;8.47;7.30;;;19.70;1.00;;;;;;4991040;28;20428;-55
2022/09/14 06:49:48;;;;;;;8.73;7.83;;;19.60;1.00;;;;;;4990123;28;20348;-53
2022/09/14 06:52:14;;;;;;;11.23;7.47;;;19.60;1.00;;;;;;4990502;28;20249;-53
2022/09/14 06:54:40;;;;;;;9.20;7.30;;;19.50;1.00;;;;;;4989955;28;20504;-54
2022/09/14 06:57:05;;;;;;;8.40;7.50;;;19.50;1.00;;;;;;4990613;28;20489;-54
2022/09/14 06:59:31;;;;;;;9.07;8.17;;;19.50;1.00;;;;;;4990847;28;20309;-55
2022/09/14 07:01:56;;;;;;;11.90;7.63;;;19.60;1.00;;;;;;4990182;28;20564;-53
2022/09/14 07:04:23;;;;;;;10.10;7.43;;;19.50;1.00;;;;;;4990627;28;20198;-54
2022/09/14 07:06:49;;;;;;;8.90;7.83;;;19.50;1.00;;;;;;4990553;28;20548;-54
2022/09/14 07:09:17;;;;;;;11.13;8.07;;;19.50;1.00;;;;;;4990671;28;20468;-54
2022/09/14 07:11:43;;;;;;;11.80;8.00;;;19.60;1.00;;;;;;4990136;28;20488;-53
2022/09/14 07:14:09;;;;;;;11.20;8.50;;;19.60;1.00;;;;;;4990274;28;20524;-53
2022/09/14 07:16:37;;;;;;;9.33;7.87;;;19.70;1.00;;;;;;4990423;28;20449;-54
2022/09/14 07:19:05;;;;;;;10.00;7.80;;;19.50;1.00;;;;;;4990347;28;20906;-54
2022/09/14 07:21:31;;;;;;;9.00;8.20;;;19.60;1.00;;;;;;4990407;28;20807;-55
2022/09/14 07:23:57;;;;;;;10.67;8.50;;;18.70;1.00;;;;;;4990257;28;20454;-56
2022/09/14 07:26:26;;;;;;;13.30;8.63;;;19.60;1.00;;;;;;4990501;28;20445;-56
2022/09/14 07:28:57;;;;;;;9.83;8.83;;;19.60;1.00;;;;;;4990201;28;20190;-55
2022/09/14 07:31:26;;;;;;;8.87;7.97;;;19.70;1.00;;;;;;4990079;28;20458;-56
2022/09/14 07:33:53;;;;;;;15.70;11.90;;;19.70;1.00;;;;;;4990129;28;20843;-56
2022/09/14 07:36:20;;;;;;;10.83;9.73;;;19.80;1.00;;;;;;4990179;28;20528;-56
2022/09/14 07:38:45;;;;;;;9.37;7.90;;;19.80;1.00;;;;;;4990139;28;20446;-56
2022/09/14 07:41:11;;;;;;;9.53;8.53;;;19.90;1.00;;;;;;4989697;28;20437;-55
2022/09/14 07:43:37;;;;;;;9.47;8.57;;;19.70;1.00;;;;;;4993126;28;20588;-56
2022/09/14 07:46:06;;;;;;;13.40;9.03;;;19.70;1.00;;;;;;4993691;28;20190;-55
2022/09/14 07:48:33;;;;;;;11.40;8.60;;;19.70;1.00;;;;;;4993949;28;20197;-54
2022/09/14 07:51:07;;;;;;;9.10;8.20;;;19.70;1.00;;;;;;4993390;28;20445;-53
2022/09/14 07:53:38;;;;;;;11.77;8.23;;;19.60;1.00;;;;;;4993837;28;20442;-56
2022/09/14 07:56:07;;;;;;;9.27;8.33;;;19.60;1.00;;;;;;4993328;28;20437;-54
2022/09/14 07:58:33;;;;;;;9.87;8.70;;;19.10;1.00;;;;;;4993777;28;20861;-56
2022/09/14 08:01:00;;;;;;;9.90;7.53;;;19.60;1.00;;;;;;4975255;28;20457;-57
2022/09/14 08:03:27;;;;;;;9.77;8.77;;;19.60;1.00;;;;;;4993751;28;20445;-55
2022/09/14 08:06:01;;;;;;;9.93;9.03;;;19.60;1.00;;;;;;4993683;28;20914;-57
2022/09/14 08:08:32;;;;;;;8.07;7.37;;;19.80;1.00;;;;;;4991650;28;20444;-54
2022/09/14 08:11:12;;;;;;;9.90;8.97;;;20.00;1.00;;;;;;4992398;28;20445;-53
2022/09/14 08:13:41;;;;;;;10.00;8.97;;;20.30;1.00;;;;;;4992545;28;20446;-55
2022/09/14 08:16:07;;;;;;;10.33;9.10;;;20.30;1.00;;;;;;4994998;28;21974;-55
2022/09/14 08:18:34;;;;;;;9.43;8.53;;;20.30;1.00;;;;;;4998898;28;20457;-57
2022/09/14 08:21:14;;;;;;;9.97;9.07;;;20.30;1.00;;;;;;4993082;28;21051;-54
2022/09/14 08:23:41;;;;;;;10.20;9.20;;;20.50;1.00;;;;;;4976829;28;21014;-56
2022/09/14 08:26:22;;;;;;;10.13;8.30;;;20.50;1.00;;;;;;4993094;28;20449;-55
2022/09/14 08:28:49;;;;;;;9.90;8.30;;;20.60;1.00;;;;;;4993289;28;20467;-54
2022/09/14 08:31:23;;;;;;;10.63;9.63;;;20.60;1.00;;;;;;4975169;28;20450;-54
2022/09/14 08:33:51;;;;;;;10.77;9.83;;;20.60;1.00;;;;;;4993311;28;20843;-55
2022/09/14 08:36:19;;;;;;;11.27;10.07;;;20.60;1.00;;;;;;4992639;28;20799;-56
2022/09/14 08:38:44;;;;;;;9.23;7.97;;;20.60;1.00;;;;;;4992980;28;20440;-53
2022/09/14 08:41:18;;;;;;;9.93;8.90;;;20.60;1.00;;;;;;4992743;28;20433;-56
2022/09/14 08:43:44;;;;;;;11.63;10.43;;;20.60;1.00;;;;;;4973706;28;20204;-52
2022/09/14 08:46:22;;;;;;;10.30;9.40;;;20.50;1.00;;;;;;4973198;28;20542;-56
2022/09/14 08:48:48;;;;;;;11.40;10.20;;;20.50;1.00;;;;;;4973164;28;20920;-53
2022/09/14 08:51:15;;;;;;;12.43;10.70;;;20.50;1.00;;;;;;4972812;28;20529;-57
2022/09/14 08:53:42;;;;;;;11.80;10.60;;;20.60;1.00;;;;;;4972777;28;20298;-54
2022/09/14 08:56:27;;;;;;;11.50;10.30;;;20.60;1.00;;;;;;4973048;28;20421;-55
2022/09/14 08:59:36;;;;;;;11.63;9.40;;;20.60;1.00;;;;;;4973144;28;20445;-55
2022/09/14 09:02:27;;;;;;;10.67;9.53;;;20.70;1.00;;;;;;4972400;28;20445;-56
2022/09/14 09:05:18;;;;;;;12.60;10.33;;;20.70;1.00;;;;;;4972497;28;20429;-53
2022/09/14 09:08:16;;;;;;;12.40;11.10;;;20.80;1.00;;;;;;4971570;28;20466;-55
2022/09/14 09:10:43;;;;;;;12.33;11.17;;;21.10;1.00;;;;;;4966588;28;20454;-54
2022/09/14 09:13:13;;;;;;;11.03;9.93;;;21.20;1.00;;;;;;4972613;28;20927;-56
2022/09/14 09:15:48;;;;;;;11.70;10.50;;;21.30;1.00;;;;;;4972582;28;20446;-54
2022/09/14 09:18:28;;;;;;;14.57;12.33;;;21.20;1.00;;;;;;4972368;28;20473;-55
2022/09/14 09:21:00;;;;;;;15.43;12.50;;;21.20;1.00;;;;;;4971488;28;20766;-54
2022/09/14 09:23:28;;;;;;;14.00;12.43;;;21.10;1.00;;;;;;4972410;28;20911;-54
2022/09/14 09:26:09;;;;;;;13.73;12.33;;;20.90;1.00;;;;;;4972435;28;20449;-54
2022/09/14 09:28:51;;;;;;;13.80;12.17;;;20.70;1.00;;;;;;4970904;28;20520;-54
2022/09/14 09:31:21;;;;;;;19.13;13.53;;;20.60;1.00;;;;;;4972231;28;20682;-53
2022/09/14 09:33:48;;;;;;;14.90;13.50;;;20.70;1.00;;;;;;4972239;28;20417;-54
2022/09/14 09:36:14;;;;;;;14.37;13.03;;;20.70;1.00;;;;;;4972378;28;20412;-55
2022/09/14 09:38:41;;;;;;;15.37;13.87;;;20.90;1.00;;;;;;4972086;28;20438;-53
2022/09/14 09:41:14;;;;;;;15.20;13.27;;;21.00;1.00;;;;;;4972310;28;20431;-53
2022/09/14 09:44:01;;;;;;;15.87;14.30;;;21.00;1.00;;;;;;4989427;28;21009;-54
2022/09/14 09:46:33;;;;;;;16.70;13.13;;;21.10;1.00;;;;;;4991454;28;20435;-51
2022/09/14 09:49:03;;;;;;;14.03;12.73;;;21.20;1.00;;;;;;4990463;28;20408;-56
2022/09/14 09:51:30;;;;;;;15.83;14.20;;;21.40;1.00;;;;;;4991547;28;20464;-56
2022/09/14 09:54:11;;;;;;;14.37;12.97;;;21.60;1.00;;;;;;4991302;28;20444;-55
2022/09/14 09:56:40;;;;;;;14.70;13.20;;;21.80;1.00;;;;;;4991107;28;20890;-53
2022/09/14 09:59:34;;;;;;;15.00;13.60;;;21.90;1.00;;;;;;4991307;28;20441;-55
2022/09/14 10:02:21;;;;;;;15.43;13.80;;;22.00;1.00;;;;;;4980917;28;20457;-55
2022/09/14 10:04:55;;;;;;;13.33;12.03;;;22.00;1.00;;;;;;4988418;28;20778;-55
2022/09/14 10:07:21;;;;;;;14.43;12.83;;;22.00;1.00;;;;;;4991331;28;20416;-55
2022/09/14 10:09:56;;;;;;;14.40;12.90;;;22.00;1.00;;;;;;4990757;28;20433;-53
2022/09/14 10:12:22;;;;;;;15.07;13.57;;;21.90;1.00;;;;;;4991105;28;20473;-56
2022/09/14 10:14:49;;;;;;;16.40;14.70;;;21.90;1.00;;;;;;4990849;28;20706;-52
2022/09/14 10:17:22;;;;;;;14.97;13.43;;;21.90;1.00;;;;;;4990691;28;20450;-55
2022/09/14 10:19:49;;;;;;;17.77;13.87;;;21.90;1.00;;;;;;4990933;28;21033;-54
2022/09/14 10:22:25;;;;;;;16.77;15.07;;;21.80;1.00;;;;;;4990936;28;20450;-55
2022/09/14 10:24:53;;;;;;;16.17;14.60;;;21.70;1.00;;;;;;4988596;28;20441;-54
2022/09/14 10:27:40;;;;;;;15.20;13.80;;;21.70;1.00;;;;;;4990733;28;20585;-53
2022/09/14 10:30:12;;;;;;;16.17;14.60;;;21.60;1.00;;;;;;4990239;28;20486;-56
2022/09/14 10:32:38;;;;;;;16.87;15.27;;;21.50;1.00;;;;;;4990495;28;20527;-54
2022/09/14 10:35:12;;;;;;;16.03;14.37;;;21.50;1.00;;;;;;4990815;28;20446;-54
2022/09/14 10:37:44;;;;;;;16.47;14.83;;;21.40;1.00;;;;;;4990260;28;20974;-52
2022/09/14 10:40:36;;;;;;;18.30;16.40;;;21.40;1.00;;;;;;4990257;28;20453;-56
2022/09/14 10:43:13;;;;;;;17.57;15.77;;;21.40;1.00;;;;;;4990134;28;20489;-55
2022/09/14 10:45:57;;;;;;;17.53;15.93;;;21.30;1.00;;;;;;4990574;28;20433;-54
2022/09/14 10:48:42;;;;;;;18.20;16.40;;;21.30;1.00;;;;;;4989581;28;20459;-55
2022/09/14 10:51:25;;;;;;;18.87;16.87;;;21.20;1.00;;;;;;4987549;28;20479;-56
2022/09/14 10:54:18;;;;;;;16.67;15.00;;;21.20;1.00;;;;;;4990199;28;20496;-55
2022/09/14 10:56:59;;;;;;;17.57;15.87;;;21.20;1.00;;;;;;4990147;28;20454;-54
2022/09/14 10:59:37;;;;;;;16.10;14.50;;;21.10;1.00;;;;;;4989857;28;22599;-56
2022/09/14 11:02:43;;;;;;;16.73;15.03;;;21.10;1.00;;;;;;4990457;28;20503;-55
2022/09/14 11:05:33;;;;;;;16.87;15.30;;;21.00;1.00;;;;;;4989968;28;20457;-55
2022/09/14 11:08:11;;;;;;;16.93;15.30;;;20.80;1.00;;;;;;4990248;28;20456;-55
2022/09/14 11:11:26;;;;;;;16.63;14.93;;;20.70;1.00;;;;;;4988360;28;20738;-54
2022/09/14 11:14:26;;;;;;;18.20;16.30;;;20.80;1.00;;;;;;4990531;28;20463;-53
2022/09/14 11:17:32;;;;;;;20.20;18.10;;;20.80;1.00;;;;;;4991928;28;20495;-56
2022/09/14 11:20:25;;;;;;;17.43;15.33;;;20.80;1.00;;;;;;4994420;28;20446;-52
2022/09/14 11:22:59;;;;;;;17.90;16.00;;;20.80;1.00;;;;;;4993806;28;21020;-54
2022/09/14 11:25:48;;;;;;;19.10;17.07;;;20.80;1.00;;;;;;4993717;28;20453;-55
2022/09/14 11:28:21;;;;;;;17.13;15.40;;;20.80;1.00;;;;;;4994258;28;20446;-54
2022/09/14 11:31:12;;;;;;;18.80;16.90;;;20.80;1.00;;;;;;4995912;28;21078;-55
2022/09/14 11:33:54;;;;;;;22.03;17.90;;;21.10;1.00;;;;;;4992561;28;20446;-55
2022/09/14 11:36:23;;;;;;;18.93;16.70;;;21.20;1.00;;;;;;4993047;28;20453;-56
2022/09/14 11:39:03;;;;;;;19.47;17.60;;;21.30;1.00;;;;;;4993879;28;20954;-55
2022/09/14 11:41:46;;;;;;;17.47;15.73;;;21.30;1.00;;;;;;4993642;28;20787;-56
2022/09/14 11:44:30;;;;;;;17.60;15.90;;;21.30;1.00;;;;;;4993991;28;20463;-56
2022/09/14 11:47:05;;;;;;;17.40;15.70;;;21.20;1.00;;;;;;4992590;28;20473;-53
2022/09/14 11:49:54;;;;;;;16.60;15.00;;;21.20;1.00;;;;;;4993528;28;20798;-56
2022/09/14 11:52:22;;;;;;;19.53;17.37;;;21.30;1.00;;;;;;4993847;28;20473;-56
2022/09/14 11:54:49;;;;;;;18.17;16.43;;;21.30;1.00;;;;;;4994216;28;20599;-53
2022/09/14 11:57:24;;;;;;;17.67;15.97;;;21.30;1.00;;;;;;4994109;28;20440;-53
2022/09/14 11:59:51;;;;;;;17.23;15.63;;;21.40;1.00;;;;;;4993826;28;20433;-56
2022/09/14 12:02:26;;;;;;;18.00;16.10;;;21.50;1.00;;;;;;4993618;28;20482;-56
2022/09/14 12:05:04;;;;;;;18.90;17.03;;;21.50;1.00;;;;;;4993669;28;20484;-55
2022/09/14 12:07:41;;;;;;;18.60;16.43;;;21.40;1.00;;;;;;4975999;28;20540;-56
2022/09/14 12:10:13;;;;;;;18.40;16.20;;;21.50;1.00;;;;;;4992945;28;20883;-55
2022/09/14 12:12:41;;;;;;;17.23;15.43;;;21.50;1.00;;;;;;4992998;28;20465;-56
2022/09/14 12:15:25;;;;;;;18.70;16.87;;;21.60;1.00;;;;;;4995535;28;20556;-53
2022/09/14 12:17:52;;;;;;;17.00;15.30;;;21.50;1.00;;;;;;4994368;28;20528;-55
2022/09/14 12:20:30;;;;;;;17.93;16.00;;;21.50;1.00;;;;;;4988384;28;20781;-56
2022/09/14 12:23:23;;;;;;;18.30;16.50;;;21.50;1.00;;;;;;4993233;28;20938;-55
2022/09/14 12:26:00;;;;;;;16.70;14.97;;;21.50;1.00;;;;;;4993067;28;20424;-55
2022/09/14 12:28:39;;;;;;;19.57;17.50;;;21.50;1.00;;;;;;4992602;28;20456;-56
2022/09/14 12:31:04;;;;;;;18.77;16.80;;;21.50;1.00;;;;;;4993236;28;20445;-55
2022/09/14 12:33:33;;;;;;;18.53;16.60;;;21.70;1.00;;;;;;4994698;28;20472;-56
2022/09/14 12:36:25;;;;;;;18.47;16.57;;;21.70;1.00;;;;;;4993025;28;20648;-54
2022/09/14 12:38:54;;;;;;;19.00;16.00;;;20.50;1.00;;;;;;4953109;28;20441;-52
2022/09/14 12:41:19;;;;;;;18.07;16.47;;;21.90;1.00;;;;;;4975172;28;20495;-57
2022/09/14 12:43:48;;;;;;;18.57;16.83;;;21.90;1.00;;;;;;4992842;28;20473;-55
2022/09/14 12:46:19;;;;;;;20.20;18.07;;;22.00;1.00;;;;;;4975410;28;20640;-54
2022/09/14 12:48:48;;;;;;;18.13;16.33;;;22.10;1.00;;;;;;4992669;28;20967;-57
2022/09/14 12:51:30;;;;;;;19.40;17.33;;;22.10;1.00;;;;;;4992731;28;20504;-55
2022/09/14 12:54:08;;;;;;;19.13;17.33;;;22.20;1.00;;;;;;4992689;28;20449;-56
2022/09/14 12:56:41;;;;;;;20.00;17.90;;;22.20;1.00;;;;;;4992602;28;20433;-55
2022/09/14 12:59:45;;;;;;;19.13;17.33;;;22.10;1.00;;;;;;4993226;28;20431;-52
2022/09/14 13:02:25;;;;;;;19.60;17.80;;;22.10;1.00;;;;;;4992439;28;20976;-54
2022/09/14 13:04:55;;;;;;;18.67;16.93;;;22.00;1.00;;;;;;4991876;28;20442;-54
2022/09/14 13:07:24;;;;;;;19.70;17.90;;;22.00;1.00;;;;;;4992374;28;20458;-56
2022/09/14 13:09:55;;;;;;;19.60;17.70;;;22.00;1.00;;;;;;4988953;28;20445;-54
2022/09/14 13:12:37;;;;;;;21.33;19.23;;;22.00;1.00;;;;;;4990463;28;21057;-53
2022/09/14 13:15:16;;;;;;;18.20;16.40;;;22.20;1.00;;;;;;4989929;28;20456;-55